sensor_id;sensor_type;location;lat;lon;timestamp;pressure;altitude;pressure_sealevel;temperature
15144;BMP180;7672;50.834;6.286;2022-12-07T00:01:40;99885.06;;;9.18
15144;BMP180;7672;50.834;6.286;2022-12-07T00:04:11;99873.25;;;9.15
15144;BMP180;7672;50.834;6.286;2022-12-07T00:06:42;99875.78;;;9.15
15144;BMP180;7672;50.834;6.286;2022-12-07T00:09:15;99869.88;;;9.15
15144;BMP180;7672;50.834;6.286;2022-12-07T00:11:44;99870.72;;;9.14
15144;BMP180;7672;50.834;6.286;2022-12-07T00:14:15;99872.41;;;9.15
15144;BMP180;7672;50.834;6.286;2022-12-07T00:16:43;99867.34;;;9.15
15144;BMP180;7672;50.834;6.286;2022-12-07T00:19:26;99864.88;;;9.16
15144;BMP180;7672;50.834;6.286;2022-12-07T00:21:54;99872.47;;;9.19
15144;BMP180;7672;50.834;6.286;2022-12-07T00:24:21;99872.47;;;9.19
15144;BMP180;7672;50.834;6.286;2022-12-07T00:26:48;99864.06;;;9.19
15144;BMP180;7672;50.834;6.286;2022-12-07T00:29:19;99864.09;;;9.20
15144;BMP180;7672;50.834;6.286;2022-12-07T00:31:46;99864.09;;;9.20
15144;BMP180;7672;50.834;6.286;2022-12-07T00:34:18;99860.75;;;9.21
15144;BMP180;7672;50.834;6.286;2022-12-07T00:36:45;99858.22;;;9.23
15144;BMP180;7672;50.834;6.286;2022-12-07T00:39:12;99853.19;;;9.24
15144;BMP180;7672;50.834;6.286;2022-12-07T00:41:38;99852.34;;;9.23
15144;BMP180;7672;50.834;6.286;2022-12-07T00:44:05;99860.78;;;9.25
15144;BMP180;7672;50.834;6.286;2022-12-07T00:46:32;99853.22;;;9.27
15144;BMP180;7672;50.834;6.286;2022-12-07T00:48:59;99859.13;;;9.27
15144;BMP180;7672;50.834;6.286;2022-12-07T00:51:26;99849.06;;;9.27
15144;BMP180;7672;50.834;6.286;2022-12-07T00:53:53;99851.53;;;9.26
15144;BMP180;7672;50.834;6.286;2022-12-07T00:56:26;99854.91;;;9.26
15144;BMP180;7672;50.834;6.286;2022-12-07T00:59:00;99848.16;;;9.25
15144;BMP180;7672;50.834;6.286;2022-12-07T01:01:30;99854.91;;;9.25
15144;BMP180;7672;50.834;6.286;2022-12-07T01:03:58;99846.47;;;9.23
15144;BMP180;7672;50.834;6.286;2022-12-07T01:06:28;99845.66;;;9.25
15144;BMP180;7672;50.834;6.286;2022-12-07T01:08:55;99848.19;;;9.27
15144;BMP180;7672;50.834;6.286;2022-12-07T01:11:26;99850.75;;;9.30
15144;BMP180;7672;50.834;6.286;2022-12-07T01:13:56;99838.97;;;9.30
15144;BMP180;7672;50.834;6.286;2022-12-07T01:16:27;99845.72;;;9.30
15144;BMP180;7672;50.834;6.286;2022-12-07T01:18:56;99845.72;;;9.31
15144;BMP180;7672;50.834;6.286;2022-12-07T01:21:30;99854.13;;;9.33
15144;BMP180;7672;50.834;6.286;2022-12-07T01:23:59;99847.44;;;9.32
15144;BMP180;7672;50.834;6.286;2022-12-07T01:26:26;99851.63;;;9.33
15144;BMP180;7672;50.834;6.286;2022-12-07T01:28:54;99851.66;;;9.35
15144;BMP180;7672;50.834;6.286;2022-12-07T01:31:24;99855.00;;;9.35
15144;BMP180;7672;50.834;6.286;2022-12-07T01:33:55;99852.50;;;9.35
15144;BMP180;7672;50.834;6.286;2022-12-07T01:36:30;99860.06;;;9.35
15144;BMP180;7672;50.834;6.286;2022-12-07T01:39:01;99855.84;;;9.34
15144;BMP180;7672;50.834;6.286;2022-12-07T01:41:32;99847.44;;;9.34
15144;BMP180;7672;50.834;6.286;2022-12-07T01:44:30;99858.38;;;9.34
15144;BMP180;7672;50.834;6.286;2022-12-07T01:47:03;99850.75;;;9.30
15144;BMP180;7672;50.834;6.286;2022-12-07T01:49:47;99852.41;;;9.29
15144;BMP180;7672;50.834;6.286;2022-12-07T01:54:53;99858.28;;;9.28
15144;BMP180;7672;50.834;6.286;2022-12-07T01:57:21;99851.59;;;9.29
15144;BMP180;7672;50.834;6.286;2022-12-07T01:59:51;99854.94;;;9.31
15144;BMP180;7672;50.834;6.286;2022-12-07T02:02:23;99847.38;;;9.29
15144;BMP180;7672;50.834;6.286;2022-12-07T02:04:54;99850.75;;;9.30
15144;BMP180;7672;50.834;6.286;2022-12-07T02:07:23;99842.34;;;9.31
15144;BMP180;7672;50.834;6.286;2022-12-07T02:09:50;99846.56;;;9.32
15144;BMP180;7672;50.834;6.286;2022-12-07T02:12:17;99840.69;;;9.31
15144;BMP180;7672;50.834;6.286;2022-12-07T02:14:44;99855.00;;;9.34
15144;BMP180;7672;50.834;6.286;2022-12-07T02:20:29;99837.28;;;9.29
15144;BMP180;7672;50.834;6.286;2022-12-07T02:31:32;99836.38;;;9.26
15144;BMP180;7672;50.834;6.286;2022-12-07T02:34:11;99833.91;;;9.27
15144;BMP180;7672;50.834;6.286;2022-12-07T02:36:50;99831.38;;;9.27
15144;BMP180;7672;50.834;6.286;2022-12-07T02:39:42;99836.44;;;9.27
15144;BMP180;7672;50.834;6.286;2022-12-07T02:42:24;99833.91;;;9.27
15144;BMP180;7672;50.834;6.286;2022-12-07T02:44:53;99823.81;;;9.27
15144;BMP180;7672;50.834;6.286;2022-12-07T02:47:23;99828.00;;;9.28
15144;BMP180;7672;50.834;6.286;2022-12-07T02:49:52;99823.00;;;9.30
15144;BMP180;7672;50.834;6.286;2022-12-07T02:52:19;99827.19;;;9.29
15144;BMP180;7672;50.834;6.286;2022-12-07T02:54:45;99825.53;;;9.31
15144;BMP180;7672;50.834;6.286;2022-12-07T03:00:08;99818.81;;;9.30
15144;BMP180;7672;50.834;6.286;2022-12-07T03:03:00;99827.19;;;9.29
15144;BMP180;7672;50.834;6.286;2022-12-07T03:05:59;99836.47;;;9.30
15144;BMP180;7672;50.834;6.286;2022-12-07T03:08:38;99825.50;;;9.28
15144;BMP180;7672;50.834;6.286;2022-12-07T03:14:19;99835.56;;;9.27
15144;BMP180;7672;50.834;6.286;2022-12-07T03:17:03;99834.72;;;9.25
15144;BMP180;7672;50.834;6.286;2022-12-07T03:19:35;99837.25;;;9.25
15144;BMP180;7672;50.834;6.286;2022-12-07T03:22:11;99831.38;;;9.27
15144;BMP180;7672;50.834;6.286;2022-12-07T03:24:43;99834.75;;;9.28
15144;BMP180;7672;50.834;6.286;2022-12-07T03:29:59;99825.50;;;9.28
15144;BMP180;7672;50.834;6.286;2022-12-07T03:32:43;99834.75;;;9.28
15144;BMP180;7672;50.834;6.286;2022-12-07T03:35:35;99834.75;;;9.26
15144;BMP180;7672;50.834;6.286;2022-12-07T03:41:23;99837.19;;;9.23
15144;BMP180;7672;50.834;6.286;2022-12-07T03:43:54;99837.25;;;9.25
15144;BMP180;7672;50.834;6.286;2022-12-07T03:48:56;99835.59;;;9.28
15144;BMP180;7672;50.834;6.286;2022-12-07T03:51:36;99825.50;;;9.28
15144;BMP180;7672;50.834;6.286;2022-12-07T03:56:39;99828.00;;;9.27
15144;BMP180;7672;50.834;6.286;2022-12-07T03:59:07;99835.59;;;9.28
15144;BMP180;7672;50.834;6.286;2022-12-07T04:01:34;99831.38;;;9.27
15144;BMP180;7672;50.834;6.286;2022-12-07T04:04:00;99833.03;;;9.25
15144;BMP180;7672;50.834;6.286;2022-12-07T04:06:27;99838.91;;;9.26
15144;BMP180;7672;50.834;6.286;2022-12-07T04:08:54;99838.06;;;9.23
15144;BMP180;7672;50.834;6.286;2022-12-07T04:11:21;99830.44;;;9.20
15144;BMP180;7672;50.834;6.286;2022-12-07T04:13:48;99831.28;;;9.19
15144;BMP180;7672;50.834;6.286;2022-12-07T04:16:33;99828.69;;;9.13
15144;BMP180;7672;50.834;6.286;2022-12-07T04:19:06;99831.19;;;9.11
15144;BMP180;7672;50.834;6.286;2022-12-07T04:21:33;99828.63;;;9.10
15144;BMP180;7672;50.834;6.286;2022-12-07T04:24:00;99823.59;;;9.10
15144;BMP180;7672;50.834;6.286;2022-12-07T04:26:26;99824.44;;;9.07
15144;BMP180;7672;50.834;6.286;2022-12-07T04:28:53;99825.25;;;9.05
15144;BMP180;7672;50.834;6.286;2022-12-07T04:31:20;99821.84;;;9.03
15144;BMP180;7672;50.834;6.286;2022-12-07T04:33:47;99826.06;;;9.04
15144;BMP180;7672;50.834;6.286;2022-12-07T04:36:14;99829.38;;;9.01
15144;BMP180;7672;50.834;6.286;2022-12-07T04:38:40;99826.84;;;9.00
15144;BMP180;7672;50.834;6.286;2022-12-07T04:41:09;99818.44;;;8.99
15144;BMP180;7672;50.834;6.286;2022-12-07T04:43:36;99820.94;;;8.99
15144;BMP180;7672;50.834;6.286;2022-12-07T04:46:03;99826.81;;;8.98
15144;BMP180;7672;50.834;6.286;2022-12-07T04:48:30;99820.94;;;8.99
15144;BMP180;7672;50.834;6.286;2022-12-07T04:50:57;99811.69;;;8.97
15144;BMP180;7672;50.834;6.286;2022-12-07T04:53:24;99818.44;;;8.99
15144;BMP180;7672;50.834;6.286;2022-12-07T04:55:50;99820.13;;;9.00
15144;BMP180;7672;50.834;6.286;2022-12-07T04:58:17;99815.97;;;9.02
15144;BMP180;7672;50.834;6.286;2022-12-07T05:00:44;99817.63;;;9.02
15144;BMP180;7672;50.834;6.286;2022-12-07T05:03:11;99817.69;;;9.05
15144;BMP180;7672;50.834;6.286;2022-12-07T05:05:40;99804.19;;;9.03
15144;BMP180;7672;50.834;6.286;2022-12-07T05:08:08;99807.53;;;9.03
15144;BMP180;7672;50.834;6.286;2022-12-07T05:10:35;99811.75;;;9.01
15144;BMP180;7672;50.834;6.286;2022-12-07T05:13:01;99818.44;;;9.01
15144;BMP180;7672;50.834;6.286;2022-12-07T05:15:28;99814.22;;;8.98
15144;BMP180;7672;50.834;6.286;2022-12-07T05:17:55;99814.16;;;8.94
15144;BMP180;7672;50.834;6.286;2022-12-07T05:20:22;99817.50;;;8.91
15144;BMP180;7672;50.834;6.286;2022-12-07T05:22:49;99814.91;;;8.87
15144;BMP180;7672;50.834;6.286;2022-12-07T05:25:15;99824.97;;;8.85
15144;BMP180;7672;50.834;6.286;2022-12-07T05:27:42;99813.19;;;8.83
15144;BMP180;7672;50.834;6.286;2022-12-07T05:30:09;99818.22;;;8.81
15144;BMP180;7672;50.834;6.286;2022-12-07T05:32:36;99817.38;;;8.81
15144;BMP180;7672;50.834;6.286;2022-12-07T05:35:03;99813.16;;;8.80
15144;BMP180;7672;50.834;6.286;2022-12-07T05:37:30;99815.69;;;8.81
15144;BMP180;7672;50.834;6.286;2022-12-07T05:39:58;99813.97;;;8.80
15144;BMP180;7672;50.834;6.286;2022-12-07T05:42:24;99823.25;;;8.83
15144;BMP180;7672;50.834;6.286;2022-12-07T05:44:51;99819.09;;;8.83
15144;BMP180;7672;50.834;6.286;2022-12-07T05:47:18;99814.88;;;8.84
15144;BMP180;7672;50.834;6.286;2022-12-07T05:49:45;99819.09;;;8.83
15144;BMP180;7672;50.834;6.286;2022-12-07T05:52:12;99804.78;;;8.84
15144;BMP180;7672;50.834;6.286;2022-12-07T05:54:39;99807.31;;;8.85
15144;BMP180;7672;50.834;6.286;2022-12-07T05:57:05;99808.19;;;8.86
15144;BMP180;7672;50.834;6.286;2022-12-07T05:59:32;99816.59;;;8.88
15144;BMP180;7672;50.834;6.286;2022-12-07T06:02:09;99815.78;;;8.89
15144;BMP180;7672;50.834;6.286;2022-12-07T06:04:41;99818.28;;;8.87
15144;BMP180;7672;50.834;6.286;2022-12-07T06:07:09;99822.47;;;8.87
15144;BMP180;7672;50.834;6.286;2022-12-07T06:09:37;99815.78;;;8.87
15144;BMP180;7672;50.834;6.286;2022-12-07T06:12:05;99815.78;;;8.87
15144;BMP180;7672;50.834;6.286;2022-12-07T06:14:50;99810.72;;;8.86
15144;BMP180;7672;50.834;6.286;2022-12-07T06:17:17;99812.38;;;8.87
15144;BMP180;7672;50.834;6.286;2022-12-07T06:19:44;99813.25;;;8.89
15144;BMP180;7672;50.834;6.286;2022-12-07T06:22:12;99810.75;;;8.89
15144;BMP180;7672;50.834;6.286;2022-12-07T06:24:39;99821.66;;;8.89
15144;BMP180;7672;50.834;6.286;2022-12-07T06:27:06;99819.19;;;8.91
15144;BMP180;7672;50.834;6.286;2022-12-07T06:29:34;99814.13;;;8.91
15144;BMP180;7672;50.834;6.286;2022-12-07T06:32:01;99813.28;;;8.90
15144;BMP180;7672;50.834;6.286;2022-12-07T06:34:28;99816.66;;;8.91
15144;BMP180;7672;50.834;6.286;2022-12-07T06:36:55;99815.78;;;8.90
15144;BMP180;7672;50.834;6.286;2022-12-07T06:39:25;99822.53;;;8.90
15144;BMP180;7672;50.834;6.286;2022-12-07T06:41:53;99816.63;;;8.89
15144;BMP180;7672;50.834;6.286;2022-12-07T06:44:21;99808.19;;;8.86
15144;BMP180;7672;50.834;6.286;2022-12-07T06:46:49;99814.94;;;8.88
15144;BMP180;7672;50.834;6.286;2022-12-07T06:49:16;99823.34;;;8.89
15144;BMP180;7672;50.834;6.286;2022-12-07T06:51:43;99823.34;;;8.89
15144;BMP180;7672;50.834;6.286;2022-12-07T06:54:12;99824.19;;;8.89
15144;BMP180;7672;50.834;6.286;2022-12-07T06:56:40;99824.97;;;8.87
15144;BMP180;7672;50.834;6.286;2022-12-07T06:59:07;99824.97;;;8.87
15144;BMP180;7672;50.834;6.286;2022-12-07T07:01:35;99817.41;;;8.85
15144;BMP180;7672;50.834;6.286;2022-12-07T07:04:03;99817.41;;;8.85
15144;BMP180;7672;50.834;6.286;2022-12-07T07:06:30;99824.13;;;8.85
15144;BMP180;7672;50.834;6.286;2022-12-07T07:08:57;99815.75;;;8.86
15144;BMP180;7672;50.834;6.286;2022-12-07T07:11:24;99816.56;;;8.85
15144;BMP180;7672;50.834;6.286;2022-12-07T07:13:51;99819.94;;;8.85
15144;BMP180;7672;50.834;6.286;2022-12-07T07:16:17;99829.19;;;8.86
15144;BMP180;7672;50.834;6.286;2022-12-07T07:18:44;99826.66;;;8.83
15144;BMP180;7672;50.834;6.286;2022-12-07T07:21:11;99832.50;;;8.82
15144;BMP180;7672;50.834;6.286;2022-12-07T07:23:38;99831.69;;;8.82
15144;BMP180;7672;50.834;6.286;2022-12-07T07:26:05;99835.84;;;8.81
15144;BMP180;7672;50.834;6.286;2022-12-07T07:28:31;99840.91;;;8.83
15144;BMP180;7672;50.834;6.286;2022-12-07T07:30:58;99838.41;;;8.84
15144;BMP180;7672;50.834;6.286;2022-12-07T07:33:25;99838.41;;;8.84
15144;BMP180;7672;50.834;6.286;2022-12-07T07:35:52;99828.31;;;8.84
15144;BMP180;7672;50.834;6.286;2022-12-07T07:38:18;99821.63;;;8.85
15144;BMP180;7672;50.834;6.286;2022-12-07T07:40:45;99830.09;;;8.90
15144;BMP180;7672;50.834;6.286;2022-12-07T07:43:12;99820.81;;;8.87
15144;BMP180;7672;50.834;6.286;2022-12-07T07:45:39;99830.91;;;8.90
15144;BMP180;7672;50.834;6.286;2022-12-07T07:48:07;99835.97;;;8.92
15144;BMP180;7672;50.834;6.286;2022-12-07T07:50:33;99825.91;;;8.92
15144;BMP180;7672;50.834;6.286;2022-12-07T07:53:00;99832.63;;;8.93
15144;BMP180;7672;50.834;6.286;2022-12-07T07:55:27;99842.75;;;8.96
15144;BMP180;7672;50.834;6.286;2022-12-07T07:57:54;99840.22;;;8.96
15144;BMP180;7672;50.834;6.286;2022-12-07T08:00:22;99841.09;;;8.98
15144;BMP180;7672;50.834;6.286;2022-12-07T08:02:48;99835.25;;;8.99
15144;BMP180;7672;50.834;6.286;2022-12-07T08:05:16;99842.00;;;9.01
15144;BMP180;7672;50.834;6.286;2022-12-07T08:07:43;99842.00;;;9.03
15144;BMP180;7672;50.834;6.286;2022-12-07T08:10:12;99842.91;;;9.06
15144;BMP180;7672;50.834;6.286;2022-12-07T08:12:42;99844.63;;;9.09
15144;BMP180;7672;50.834;6.286;2022-12-07T08:15:30;99835.38;;;9.09
15144;BMP180;7672;50.834;6.286;2022-12-07T08:17:58;99840.44;;;9.12
15144;BMP180;7672;50.834;6.286;2022-12-07T08:20:25;99845.53;;;9.15
15144;BMP180;7672;50.834;6.286;2022-12-07T08:22:52;99840.53;;;9.20
15144;BMP180;7672;50.834;6.286;2022-12-07T08:25:19;99843.91;;;9.22
15144;BMP180;7672;50.834;6.286;2022-12-07T08:27:46;99836.38;;;9.23
15144;BMP180;7672;50.834;6.286;2022-12-07T08:30:13;99846.47;;;9.24
15144;BMP180;7672;50.834;6.286;2022-12-07T08:32:40;99839.78;;;9.25
15144;BMP180;7672;50.834;6.286;2022-12-07T08:35:08;99844.81;;;9.26
15144;BMP180;7672;50.834;6.286;2022-12-07T08:37:35;99844.84;;;9.28
15144;BMP180;7672;50.834;6.286;2022-12-07T08:40:03;99840.69;;;9.31
15144;BMP180;7672;50.834;6.286;2022-12-07T08:42:31;99828.91;;;9.33
15144;BMP180;7672;50.834;6.286;2022-12-07T08:45:08;99834.84;;;9.37
15144;BMP180;7672;50.834;6.286;2022-12-07T08:47:40;99839.97;;;9.41
15144;BMP180;7672;50.834;6.286;2022-12-07T08:50:11;99845.91;;;9.48
15144;BMP180;7672;50.834;6.286;2022-12-07T08:52:39;99851.00;;;9.52
15144;BMP180;7672;50.834;6.286;2022-12-07T08:55:10;99846.00;;;9.55
15144;BMP180;7672;50.834;6.286;2022-12-07T08:57:39;99846.84;;;9.57
15144;BMP180;7672;50.834;6.286;2022-12-07T09:00:06;99851.16;;;9.69
15144;BMP180;7672;50.834;6.286;2022-12-07T09:02:34;99841.41;;;10.01
15144;BMP180;7672;50.834;6.286;2022-12-07T09:05:00;99851.09;;;10.57
15144;BMP180;7672;50.834;6.286;2022-12-07T09:07:27;99853.16;;;11.34
15144;BMP180;7672;50.834;6.286;2022-12-07T09:09:56;99843.19;;;12.18
15144;BMP180;7672;50.834;6.286;2022-12-07T09:12:22;99850.75;;;12.91
15144;BMP180;7672;50.834;6.286;2022-12-07T09:14:49;99847.06;;;13.60
15144;BMP180;7672;50.834;6.286;2022-12-07T09:17:16;99854.16;;;14.34
15144;BMP180;7672;50.834;6.286;2022-12-07T09:19:43;99840.63;;;15.12
15144;BMP180;7672;50.834;6.286;2022-12-07T09:22:10;99839.72;;;15.80
15144;BMP180;7672;50.834;6.286;2022-12-07T09:24:37;99849.84;;;16.40
15144;BMP180;7672;50.834;6.286;2022-12-07T09:27:04;99845.81;;;16.74
15144;BMP180;7672;50.834;6.286;2022-12-07T09:29:31;99843.09;;;16.84
15144;BMP180;7672;50.834;6.286;2022-12-07T09:31:57;99842.41;;;16.75
15144;BMP180;7672;50.834;6.286;2022-12-07T09:34:24;99837.81;;;16.48
15144;BMP180;7672;50.834;6.286;2022-12-07T09:36:52;99836.63;;;16.14
15144;BMP180;7672;50.834;6.286;2022-12-07T09:39:19;99833.81;;;15.80
15144;BMP180;7672;50.834;6.286;2022-12-07T09:41:46;99841.06;;;15.47
15144;BMP180;7672;50.834;6.286;2022-12-07T09:44:25;99836.38;;;15.11
15144;BMP180;7672;50.834;6.286;2022-12-07T09:46:53;99835.97;;;14.76
15144;BMP180;7672;50.834;6.286;2022-12-07T09:49:24;99841.34;;;14.45
15144;BMP180;7672;50.834;6.286;2022-12-07T09:52:20;99840.81;;;14.12
15144;BMP180;7672;50.834;6.286;2022-12-07T09:54:52;99819.84;;;13.80
15144;BMP180;7672;50.834;6.286;2022-12-07T09:57:30;99831.03;;;13.52
15144;BMP180;7672;50.834;6.286;2022-12-07T10:00:04;99832.00;;;13.26
15144;BMP180;7672;50.834;6.286;2022-12-07T10:02:41;99835.44;;;13.08
15144;BMP180;7672;50.834;6.286;2022-12-07T10:05:28;99823.66;;;12.91
15144;BMP180;7672;50.834;6.286;2022-12-07T10:07:56;99835.50;;;12.82
15144;BMP180;7672;50.834;6.286;2022-12-07T10:10:33;99827.06;;;12.77
15144;BMP180;7672;50.834;6.286;2022-12-07T10:15:54;99827.13;;;12.65
15144;BMP180;7672;50.834;6.286;2022-12-07T10:18:32;99816.97;;;12.60
15144;BMP180;7672;50.834;6.286;2022-12-07T10:21:18;99820.34;;;12.58
15144;BMP180;7672;50.834;6.286;2022-12-07T10:29:51;99809.41;;;12.48
15144;BMP180;7672;50.834;6.286;2022-12-07T10:34:45;99828.81;;;12.48
15144;BMP180;7672;50.834;6.286;2022-12-07T10:37:20;99827.97;;;12.47
15144;BMP180;7672;50.834;6.286;2022-12-07T10:39:54;99821.22;;;12.40
15144;BMP180;7672;50.834;6.286;2022-12-07T10:42:32;99810.25;;;12.31
15144;BMP180;7672;50.834;6.286;2022-12-07T10:45:13;99802.66;;;12.22
15144;BMP180;7672;50.834;6.286;2022-12-07T10:48:10;99805.19;;;12.10
15144;BMP180;7672;50.834;6.286;2022-12-07T11:02:31;99784.09;;;11.70
15144;BMP180;7672;50.834;6.286;2022-12-07T11:08:15;99779.03;;;11.86
15144;BMP180;7672;50.834;6.286;2022-12-07T11:13:54;99773.84;;;12.68
15144;BMP180;7672;50.834;6.286;2022-12-07T11:17:15;99765.31;;;12.97
15144;BMP180;7672;50.834;6.286;2022-12-07T11:20:02;99768.63;;;13.15
15144;BMP180;7672;50.834;6.286;2022-12-07T11:26:05;99753.44;;;13.06
15144;BMP180;7672;50.834;6.286;2022-12-07T11:28:57;99752.66;;;12.93
15144;BMP180;7672;50.834;6.286;2022-12-07T11:31:49;99752.69;;;12.78
15144;BMP180;7672;50.834;6.286;2022-12-07T11:34:36;99753.56;;;12.68
15144;BMP180;7672;50.834;6.286;2022-12-07T11:37:15;99753.56;;;12.62
15144;BMP180;7672;50.834;6.286;2022-12-07T11:40:00;99744.31;;;12.55
15144;BMP180;7672;50.834;6.286;2022-12-07T11:42:38;99742.63;;;12.51
15144;BMP180;7672;50.834;6.286;2022-12-07T11:45:23;99740.94;;;12.51
15144;BMP180;7672;50.834;6.286;2022-12-07T11:48:02;99739.22;;;12.52
15144;BMP180;7672;50.834;6.286;2022-12-07T11:50:43;99735.88;;;12.56
15144;BMP180;7672;50.834;6.286;2022-12-07T11:53:20;99740.88;;;12.62
15144;BMP180;7672;50.834;6.286;2022-12-07T11:56:05;99726.50;;;12.71
15144;BMP180;7672;50.834;6.286;2022-12-07T11:58:57;99739.97;;;12.85
15144;BMP180;7672;50.834;6.286;2022-12-07T12:02:20;99735.69;;;12.97
15144;BMP180;7672;50.834;6.286;2022-12-07T12:05:16;99727.19;;;13.09
15144;BMP180;7672;50.834;6.286;2022-12-07T12:07:46;99721.19;;;13.19
15144;BMP180;7672;50.834;6.286;2022-12-07T12:22:34;99712.72;;;13.24
15144;BMP180;7672;50.834;6.286;2022-12-07T12:25:16;99712.75;;;13.23
15144;BMP180;7672;50.834;6.286;2022-12-07T12:27:48;99706.81;;;13.22
15144;BMP180;7672;50.834;6.286;2022-12-07T12:30:39;99705.09;;;13.21
15144;BMP180;7672;50.834;6.286;2022-12-07T12:33:26;99705.16;;;13.15
15144;BMP180;7672;50.834;6.286;2022-12-07T12:39:12;99701.03;;;12.99
15144;BMP180;7672;50.834;6.286;2022-12-07T12:47:04;99685.88;;;12.89
15144;BMP180;7672;50.834;6.286;2022-12-07T12:49:38;99688.41;;;12.88
15144;BMP180;7672;50.834;6.286;2022-12-07T12:55:14;99677.44;;;12.78
15144;BMP180;7672;50.834;6.286;2022-12-07T12:57:45;99687.59;;;12.74
15144;BMP180;7672;50.834;6.286;2022-12-07T13:00:20;99687.59;;;12.71
15144;BMP180;7672;50.834;6.286;2022-12-07T13:02:54;99680.03;;;12.68
15144;BMP180;7672;50.834;6.286;2022-12-07T13:05:25;99674.13;;;12.64
15144;BMP180;7672;50.834;6.286;2022-12-07T13:08:12;99674.97;;;12.60
15144;BMP180;7672;50.834;6.286;2022-12-07T13:10:47;99674.13;;;12.58
15144;BMP180;7672;50.834;6.286;2022-12-07T13:15:50;99666.56;;;12.55
15144;BMP180;7672;50.834;6.286;2022-12-07T13:21:00;99665.72;;;12.52
15144;BMP180;7672;50.834;6.286;2022-12-07T13:23:31;99674.16;;;12.49
15144;BMP180;7672;50.834;6.286;2022-12-07T13:31:48;99655.66;;;12.38
15144;BMP180;7672;50.834;6.286;2022-12-07T13:34:37;99648.06;;;12.32
15144;BMP180;7672;50.834;6.286;2022-12-07T13:37:26;99648.09;;;12.30
15144;BMP180;7672;50.834;6.286;2022-12-07T13:40:20;99656.53;;;12.24
15144;BMP180;7672;50.834;6.286;2022-12-07T13:42:46;99656.53;;;12.21
15144;BMP180;7672;50.834;6.286;2022-12-07T13:45:33;99654.03;;;12.18
15144;BMP180;7672;50.834;6.286;2022-12-07T13:48:35;99648.13;;;12.13
15144;BMP180;7672;50.834;6.286;2022-12-07T13:51:25;99646.47;;;12.05
15144;BMP180;7672;50.834;6.286;2022-12-07T13:54:10;99640.56;;;11.98
15144;BMP180;7672;50.834;6.286;2022-12-07T13:56:37;99643.09;;;11.92
15144;BMP180;7672;50.834;6.286;2022-12-07T13:59:19;99634.69;;;11.87
15144;BMP180;7672;50.834;6.286;2022-12-07T14:01:48;99637.22;;;11.83
15144;BMP180;7672;50.834;6.286;2022-12-07T14:04:34;99633.00;;;11.80
15144;BMP180;7672;50.834;6.286;2022-12-07T14:07:26;99637.25;;;11.75
15144;BMP180;7672;50.834;6.286;2022-12-07T14:10:05;99631.34;;;11.71
15144;BMP180;7672;50.834;6.286;2022-12-07T14:12:35;99624.59;;;11.65
15144;BMP180;7672;50.834;6.286;2022-12-07T14:15:03;99627.97;;;11.60
15144;BMP180;7672;50.834;6.286;2022-12-07T14:17:31;99624.63;;;11.58
15144;BMP180;7672;50.834;6.286;2022-12-07T14:20:00;99627.13;;;11.53
15144;BMP180;7672;50.834;6.286;2022-12-07T14:22:33;99620.38;;;11.48
15144;BMP180;7672;50.834;6.286;2022-12-07T14:25:23;99619.53;;;11.43
15144;BMP180;7672;50.834;6.286;2022-12-07T14:27:57;99622.91;;;11.39
15144;BMP180;7672;50.834;6.286;2022-12-07T14:30:33;99617.00;;;11.37
15144;BMP180;7672;50.834;6.286;2022-12-07T14:33:04;99613.63;;;11.35
15144;BMP180;7672;50.834;6.286;2022-12-07T14:35:32;99608.56;;;11.32
15144;BMP180;7672;50.834;6.286;2022-12-07T14:37:59;99603.50;;;11.27
15144;BMP180;7672;50.834;6.286;2022-12-07T14:40:28;99597.59;;;11.22
15144;BMP180;7672;50.834;6.286;2022-12-07T14:43:05;99590.84;;;11.15
15144;BMP180;7672;50.834;6.286;2022-12-07T14:45:33;99590.88;;;11.09
15144;BMP180;7672;50.834;6.286;2022-12-07T14:48:00;99574.84;;;11.03
15144;BMP180;7672;50.834;6.286;2022-12-07T14:50:52;99586.63;;;10.95
15144;BMP180;7672;50.834;6.286;2022-12-07T14:53:44;99579.91;;;10.87
15144;BMP180;7672;50.834;6.286;2022-12-07T14:56:18;99587.47;;;10.79
15144;BMP180;7672;50.834;6.286;2022-12-07T14:58:45;99584.91;;;10.75
15144;BMP180;7672;50.834;6.286;2022-12-07T15:01:14;99578.19;;;10.68
15144;BMP180;7672;50.834;6.286;2022-12-07T15:03:41;99570.56;;;10.63
15144;BMP180;7672;50.834;6.286;2022-12-07T15:06:15;99570.56;;;10.56
15144;BMP180;7672;50.834;6.286;2022-12-07T15:08:42;99565.50;;;10.51
15144;BMP180;7672;50.834;6.286;2022-12-07T15:11:15;99568.03;;;10.47
15144;BMP180;7672;50.834;6.286;2022-12-07T15:13:42;99565.50;;;10.43
15144;BMP180;7672;50.834;6.286;2022-12-07T15:16:28;99571.38;;;10.39
15144;BMP180;7672;50.834;6.286;2022-12-07T15:19:20;99576.41;;;10.36
15144;BMP180;7672;50.834;6.286;2022-12-07T15:21:55;99576.41;;;10.33
15144;BMP180;7672;50.834;6.286;2022-12-07T15:24:23;99574.72;;;10.32
15144;BMP180;7672;50.834;6.286;2022-12-07T15:26:51;99573.88;;;10.31
15144;BMP180;7672;50.834;6.286;2022-12-07T15:29:19;99578.91;;;10.30
15144;BMP180;7672;50.834;6.286;2022-12-07T15:31:52;99577.22;;;10.26
15144;BMP180;7672;50.834;6.286;2022-12-07T15:34:26;99567.13;;;10.23
15144;BMP180;7672;50.834;6.286;2022-12-07T15:36:58;99567.13;;;10.20
15144;BMP180;7672;50.834;6.286;2022-12-07T15:39:25;99580.56;;;10.19
15144;BMP180;7672;50.834;6.286;2022-12-07T15:41:52;99567.91;;;10.14
15144;BMP180;7672;50.834;6.286;2022-12-07T15:44:19;99573.78;;;10.12
15144;BMP180;7672;50.834;6.286;2022-12-07T15:47:05;99582.19;;;10.08
15144;BMP180;7672;50.834;6.286;2022-12-07T15:49:32;99580.50;;;10.05
15144;BMP180;7672;50.834;6.286;2022-12-07T15:51:59;99577.97;;;10.04
15144;BMP180;7672;50.834;6.286;2022-12-07T15:54:28;99567.88;;;10.01
15144;BMP180;7672;50.834;6.286;2022-12-07T15:56:56;99558.63;;;10.00
15144;BMP180;7672;50.834;6.286;2022-12-07T15:59:23;99566.19;;;9.98
15144;BMP180;7672;50.834;6.286;2022-12-07T16:01:51;99567.84;;;9.98
15144;BMP180;7672;50.834;6.286;2022-12-07T16:04:18;99558.63;;;9.98
15144;BMP180;7672;50.834;6.286;2022-12-07T16:06:45;99550.13;;;9.95
15144;BMP180;7672;50.834;6.286;2022-12-07T16:09:13;99545.09;;;9.95
15144;BMP180;7672;50.834;6.286;2022-12-07T16:11:39;99553.50;;;9.92
15144;BMP180;7672;50.834;6.286;2022-12-07T16:14:06;99541.69;;;9.91
15144;BMP180;7672;50.834;6.286;2022-12-07T16:16:33;99555.16;;;9.89
15144;BMP180;7672;50.834;6.286;2022-12-07T16:19:00;99554.31;;;9.85
15144;BMP180;7672;50.834;6.286;2022-12-07T16:21:27;99556.81;;;9.84
15144;BMP180;7672;50.834;6.286;2022-12-07T16:23:53;99553.41;;;9.79
15144;BMP180;7672;50.834;6.286;2022-12-07T16:26:21;99552.59;;;9.77
15144;BMP180;7672;50.834;6.286;2022-12-07T16:28:51;99555.09;;;9.74
15144;BMP180;7672;50.834;6.286;2022-12-07T16:31:22;99552.53;;;9.71
15144;BMP180;7672;50.834;6.286;2022-12-07T16:33:52;99551.69;;;9.68
15144;BMP180;7672;50.834;6.286;2022-12-07T16:36:20;99542.41;;;9.62